Time;durP1;ratioP1;P1;durP2;ratioP2;P2;SDS_P1;SDS_P2;PMS_P1;PMS_P2;Temp;Humidity;BMP_temperature;BMP_pressure;BME280_temperature;BME280_humidity;BME280_pressure;Samples;Min_cycle;Max_cycle;Signal;HPM_P1;HPM_P2
2022/02/23 00:00:19;;;;;;;6.35;1.65;;;6.10;99.90;;;;;;5068978;28;20058;-70
2022/02/23 00:02:51;;;;;;;6.55;1.95;;;6.10;99.90;;;;;;5054083;28;20518;-71
2022/02/23 00:05:23;;;;;;;7.68;1.80;;;6.00;99.90;;;;;;5070418;28;20090;-71
2022/02/23 00:07:55;;;;;;;7.32;1.73;;;6.00;99.90;;;;;;5071404;28;20041;-71
2022/02/23 00:10:28;;;;;;;7.60;1.70;;;5.90;99.90;;;;;;5071523;28;20051;-70
2022/02/23 00:13:00;;;;;;;8.85;2.15;;;5.90;99.90;;;;;;5069766;28;20297;-71
2022/02/23 00:15:32;;;;;;;9.10;1.93;;;5.90;99.90;;;;;;5071549;28;20430;-71
2022/02/23 00:18:13;;;;;;;7.30;1.80;;;5.90;99.90;;;;;;5071356;28;20044;-71
2022/02/23 00:20:46;;;;;;;6.68;1.92;;;5.90;99.90;;;;;;5071540;28;20492;-70
2022/02/23 00:23:23;;;;;;;8.02;1.75;;;5.90;99.90;;;;;;5053155;28;20048;-71
2022/02/23 00:25:55;;;;;;;7.60;2.65;;;6.00;99.90;;;;;;5086988;28;20511;-70
2022/02/23 00:28:28;;;;;;;5.07;1.55;;;6.00;99.90;;;;;;5071105;28;20060;-71
2022/02/23 00:31:00;;;;;;;6.38;1.65;;;6.00;99.90;;;;;;5069895;28;20124;-70
2022/02/23 00:33:27;;;;;;;4.47;1.70;;;6.00;99.90;;;;;;5070800;28;20392;-71
2022/02/23 00:35:59;;;;;;;5.45;2.08;;;6.00;99.90;;;;;;5071202;28;20051;-71
2022/02/23 00:38:25;;;;;;;5.18;1.60;;;6.10;99.90;;;;;;5069923;28;20135;-71
2022/02/23 00:40:52;;;;;;;7.75;1.73;;;6.10;99.90;;;;;;5069895;28;20508;-70
2022/02/23 00:43:19;;;;;;;4.53;1.50;;;6.10;99.90;;;;;;5070582;28;20506;-71
2022/02/23 00:45:50;;;;;;;9.20;2.42;;;6.20;99.90;;;;;;5070011;28;20483;-70
2022/02/23 00:48:23;;;;;;;4.40;1.50;;;6.20;99.90;;;;;;5069850;28;20045;-70
2022/02/23 00:50:54;;;;;;;4.50;1.60;;;6.20;99.90;;;;;;5071066;28;20043;-71
2022/02/23 00:53:27;;;;;;;7.93;1.92;;;6.20;99.90;;;;;;5070553;28;20094;-70
2022/02/23 00:55:59;;;;;;;7.25;2.28;;;6.20;99.90;;;;;;5069681;28;20131;-70
2022/02/23 00:58:31;;;;;;;6.55;2.50;;;6.20;99.90;;;;;;5069772;28;20050;-70
2022/02/23 01:01:03;;;;;;;10.55;2.53;;;6.30;99.90;;;;;;5069791;28;20044;-71
2022/02/23 01:03:30;;;;;;;4.55;1.55;;;6.30;99.90;;;;;;5069116;28;20449;-70
2022/02/23 01:06:03;;;;;;;4.95;1.25;;;6.30;99.90;;;;;;5070547;28;20411;-70
2022/02/23 01:08:35;;;;;;;6.57;1.38;;;6.40;99.90;;;;;;5069552;28;20044;-70
2022/02/23 01:11:07;;;;;;;9.57;1.48;;;6.40;99.90;;;;;;5069851;28;20516;-71
2022/02/23 01:13:39;;;;;;;4.82;1.67;;;6.40;99.90;;;;;;5070289;28;20068;-69
2022/02/23 01:16:11;;;;;;;5.07;1.63;;;6.40;99.90;;;;;;5070766;28;20407;-70
2022/02/23 01:18:42;;;;;;;6.05;1.88;;;6.40;99.90;;;;;;5070672;28;20063;-70
2022/02/23 01:21:10;;;;;;;3.72;1.80;;;6.40;99.90;;;;;;5069491;28;20052;-70
2022/02/23 01:23:41;;;;;;;9.45;1.70;;;6.40;99.90;;;;;;5052880;28;20406;-70
2022/02/23 01:26:08;;;;;;;12.23;1.50;;;6.40;99.90;;;;;;5070771;28;20117;-70
2022/02/23 01:28:41;;;;;;;9.20;1.92;;;6.50;99.90;;;;;;5069233;28;20214;-70
2022/02/23 01:31:13;;;;;;;5.40;1.13;;;6.40;99.90;;;;;;5053374;28;20037;-71
2022/02/23 01:33:40;;;;;;;5.90;1.48;;;6.40;99.90;;;;;;5069158;28;20487;-71
2022/02/23 01:36:12;;;;;;;6.20;1.38;;;6.50;99.90;;;;;;5073312;28;20047;-70
2022/02/23 01:38:39;;;;;;;7.50;1.90;;;6.50;99.90;;;;;;5073281;28;20159;-70
2022/02/23 01:41:13;;;;;;;5.25;1.20;;;6.40;99.90;;;;;;5073551;28;20094;-71
2022/02/23 01:43:47;;;;;;;7.60;1.95;;;6.40;99.90;;;;;;5072406;28;20051;-70
2022/02/23 01:46:19;;;;;;;4.15;1.35;;;6.40;99.90;;;;;;5074342;28;20127;-70
2022/02/23 01:48:52;;;;;;;6.07;1.38;;;6.40;99.90;;;;;;5074169;28;20048;-70
2022/02/23 01:51:24;;;;;;;5.53;1.55;;;6.50;99.90;;;;;;5074371;28;20119;-70
2022/02/23 01:53:56;;;;;;;4.03;1.13;;;6.40;99.90;;;;;;5072352;28;20048;-70
2022/02/23 01:56:28;;;;;;;7.60;1.48;;;6.40;99.90;;;;;;5072802;28;20511;-71
2022/02/23 01:59:00;;;;;;;8.18;1.42;;;6.40;99.90;;;;;;5072670;28;20101;-70
2022/02/23 02:01:33;;;;;;;6.90;1.77;;;6.40;99.90;;;;;;5072248;28;20139;-71
2022/02/23 02:04:04;;;;;;;7.07;1.60;;;6.40;99.90;;;;;;5071682;28;20055;-71
2022/02/23 02:06:36;;;;;;;5.97;1.50;;;6.40;99.90;;;;;;5073244;28;20123;-71
2022/02/23 02:09:08;;;;;;;5.03;1.38;;;6.40;99.90;;;;;;5072151;28;20143;-71
2022/02/23 02:11:43;;;;;;;7.50;1.83;;;6.40;99.90;;;;;;5073387;28;20049;-71
2022/02/23 02:14:14;;;;;;;4.40;1.38;;;6.30;99.90;;;;;;5071534;28;20055;-71
2022/02/23 02:16:41;;;;;;;4.05;1.00;;;6.30;99.90;;;;;;5071962;28;20475;-71
2022/02/23 02:19:16;;;;;;;7.60;1.90;;;6.20;99.90;;;;;;5073088;28;20048;-70
2022/02/23 02:21:56;;;;;;;4.07;1.10;;;6.10;99.90;;;;;;5088560;28;20392;-71
2022/02/23 02:24:29;;;;;;;3.30;0.93;;;6.20;99.90;;;;;;5072677;28;20456;-71
2022/02/23 02:26:59;;;;;;;6.47;1.50;;;6.10;99.90;;;;;;5071792;28;20495;-71
2022/02/23 02:29:26;;;;;;;5.65;1.20;;;6.10;99.90;;;;;;5073003;28;20119;-71
2022/02/23 02:32:00;;;;;;;6.15;1.38;;;6.10;99.90;;;;;;5088607;28;20498;-71
2022/02/23 02:34:32;;;;;;;9.50;2.30;;;6.10;99.90;;;;;;5071180;28;20041;-71
2022/02/23 02:37:05;;;;;;;5.05;1.45;;;6.10;99.90;;;;;;5071535;28;20499;-71
2022/02/23 02:39:37;;;;;;;10.07;2.50;;;6.20;99.90;;;;;;5072899;28;20060;-70
2022/02/23 02:42:10;;;;;;;4.95;1.35;;;6.10;99.90;;;;;;5055418;28;20131;-71
2022/02/23 02:44:41;;;;;;;5.03;1.45;;;6.10;99.90;;;;;;5087208;28;20040;-71
2022/02/23 02:47:13;;;;;;;6.47;1.70;;;6.20;99.90;;;;;;5070693;28;20048;-71
2022/02/23 02:49:40;;;;;;;5.88;1.70;;;6.20;99.90;;;;;;5072688;28;20115;-71
2022/02/23 02:52:12;;;;;;;3.72;1.25;;;6.20;99.90;;;;;;5071420;28;20107;-71
2022/02/23 02:54:41;;;;;;;8.90;1.90;;;6.20;99.90;;;;;;5070619;28;20063;-71
2022/02/23 02:57:08;;;;;;;7.10;1.60;;;6.20;99.90;;;;;;5054855;28;20084;-71
2022/02/23 02:59:40;;;;;;;3.42;1.20;;;6.30;99.90;;;;;;5070982;28;20045;-71
2022/02/23 03:02:12;;;;;;;5.45;1.30;;;6.30;99.90;;;;;;5071212;28;20041;-71
2022/02/23 03:04:38;;;;;;;3.58;1.00;;;6.20;99.90;;;;;;5070674;28;20045;-71
2022/02/23 03:07:13;;;;;;;6.72;1.38;;;6.20;99.90;;;;;;5070749;28;20127;-71
2022/02/23 03:09:46;;;;;;;2.80;1.40;;;6.30;99.90;;;;;;5072184;28;20415;-71
2022/02/23 03:12:26;;;;;;;4.88;1.20;;;6.30;99.90;;;;;;5070542;28;20399;-71
2022/02/23 03:14:58;;;;;;;7.63;1.92;;;6.30;99.90;;;;;;5072252;28;20064;-70
2022/02/23 03:17:25;;;;;;;4.13;1.30;;;6.30;99.90;;;;;;5070979;28;20064;-71
2022/02/23 03:19:56;;;;;;;4.35;1.35;;;6.30;99.90;;;;;;5071033;28;20733;-71
2022/02/23 03:22:23;;;;;;;1.73;1.00;;;6.40;99.90;;;;;;5071756;28;20412;-72
2022/02/23 03:24:52;;;;;;;3.13;0.55;;;6.30;99.90;;;;;;5071957;28;20044;-71
2022/02/23 03:27:19;;;;;;;3.72;0.60;;;5.60;99.90;;;;;;5071796;28;20079;-71
2022/02/23 03:29:51;;;;;;;3.85;0.88;;;5.00;99.90;;;;;;5070473;28;20045;-71
2022/02/23 03:32:22;;;;;;;3.15;0.93;;;4.20;99.90;;;;;;5070323;28;20047;-71
2022/02/23 03:34:55;;;;;;;1.30;0.40;;;3.70;99.90;;;;;;5071683;28;20131;-71
2022/02/23 03:37:27;;;;;;;1.63;0.80;;;3.40;99.90;;;;;;5062548;28;20508;-72
2022/02/23 03:39:54;;;;;;;1.17;0.40;;;3.30;99.90;;;;;;5065689;28;20483;-71
2022/02/23 03:42:21;;;;;;;1.88;0.65;;;3.20;99.90;;;;;;5071314;28;20123;-71
2022/02/23 03:44:53;;;;;;;2.72;0.60;;;3.20;99.90;;;;;;5070211;28;20117;-72
2022/02/23 03:47:19;;;;;;;1.05;0.60;;;3.10;99.90;;;;;;5070293;28;20075;-71
2022/02/23 03:49:51;;;;;;;3.63;0.80;;;3.10;99.90;;;;;;5070143;28;20148;-71
2022/02/23 03:52:21;;;;;;;2.65;0.60;;;3.10;99.90;;;;;;5069850;28;20237;-71
2022/02/23 03:54:48;;;;;;;4.28;0.95;;;3.10;99.90;;;;;;5071135;28;20052;-71
2022/02/23 03:57:15;;;;;;;5.03;1.35;;;3.10;99.90;;;;;;5071058;28;20458;-71
2022/02/23 03:59:51;;;;;;;2.53;0.93;;;3.10;99.90;;;;;;5069916;28;20041;-71
2022/02/23 04:02:18;;;;;;;1.92;0.63;;;3.10;99.90;;;;;;5071118;28;20067;-72
2022/02/23 04:04:49;;;;;;;5.25;0.73;;;3.10;99.90;;;;;;5069702;28;20522;-71
2022/02/23 04:07:21;;;;;;;4.38;0.80;;;3.10;99.90;;;;;;5071228;28;20128;-71
2022/02/23 04:10:03;;;;;;;1.38;0.47;;;3.10;99.90;;;;;;5071129;28;20044;-71
2022/02/23 04:12:29;;;;;;;2.00;0.90;;;3.00;99.90;;;;;;5069180;28;20502;-71
2022/02/23 04:15:01;;;;;;;2.35;0.75;;;3.10;99.90;;;;;;5069756;28;20531;-71
2022/02/23 04:17:33;;;;;;;4.47;0.88;;;3.10;99.90;;;;;;5069888;28;20123;-71
2022/02/23 04:20:07;;;;;;;4.00;0.90;;;3.10;99.90;;;;;;5070203;28;20072;-71
2022/02/23 04:22:39;;;;;;;;;;;3.10;99.90;;;;;;5069991;28;20135;-71
2022/02/23 04:25:11;;;;;;;4.07;0.80;;;3.10;99.90;;;;;;5070191;28;20011;-71
2022/02/23 04:27:43;;;;;;;6.63;0.77;;;3.20;99.90;;;;;;5071126;28;20121;-72
2022/02/23 04:30:16;;;;;;;5.10;0.68;;;3.10;99.90;;;;;;5070371;28;20040;-71
2022/02/23 04:32:47;;;;;;;7.43;1.20;;;3.20;99.90;;;;;;5053613;28;20131;-71
2022/02/23 04:35:19;;;;;;;1.70;0.98;;;3.20;99.90;;;;;;5071373;28;20135;-71
2022/02/23 04:37:51;;;;;;;4.00;0.77;;;3.20;99.90;;;;;;5070192;28;20116;-71
2022/02/23 04:40:18;;;;;;;4.75;0.65;;;3.30;99.90;;;;;;5069955;28;20049;-71
2022/02/23 04:42:49;;;;;;;3.35;0.73;;;3.30;99.90;;;;;;5069313;28;20457;-71
2022/02/23 04:45:22;;;;;;;6.20;1.55;;;3.30;99.90;;;;;;5071295;28;20064;-71
2022/02/23 04:47:48;;;;;;;2.97;0.68;;;3.30;99.90;;;;;;5053214;28;20135;-70
2022/02/23 04:50:20;;;;;;;4.40;0.90;;;3.40;99.90;;;;;;5069726;28;20491;-71
2022/02/23 04:52:47;;;;;;;2.55;0.73;;;3.40;99.90;;;;;;5069939;28;20487;-71
2022/02/23 04:55:19;;;;;;;1.17;0.47;;;3.40;99.90;;;;;;5070383;28;20127;-70
2022/02/23 04:57:51;;;;;;;3.70;0.88;;;3.50;99.90;;;;;;5069136;28;20507;-71
2022/02/23 05:00:23;;;;;;;4.50;1.13;;;3.50;99.90;;;;;;5069290;28;20135;-71
2022/02/23 05:02:49;;;;;;;3.30;0.80;;;3.50;99.90;;;;;;5070068;28;20101;-72
2022/02/23 05:05:21;;;;;;;4.03;0.95;;;3.60;99.90;;;;;;5069096;28;20136;-71
2022/02/23 05:07:53;;;;;;;3.92;1.05;;;3.60;99.90;;;;;;5048092;28;20068;-71
2022/02/23 05:10:20;;;;;;;3.95;1.30;;;3.70;99.90;;;;;;5068807;28;20141;-71
2022/02/23 05:12:52;;;;;;;2.50;0.70;;;3.80;99.90;;;;;;5053923;28;20057;-71
2022/02/23 05:15:19;;;;;;;4.38;0.80;;;3.80;99.90;;;;;;5052808;28;20111;-71
2022/02/23 05:17:46;;;;;;;5.82;0.90;;;3.80;99.90;;;;;;5070787;28;20041;-70
2022/02/23 05:20:18;;;;;;;6.40;0.75;;;3.90;99.90;;;;;;5032637;28;20069;-71
2022/02/23 05:22:50;;;;;;;2.42;0.98;;;3.90;99.90;;;;;;5047643;28;20071;-71
2022/02/23 05:25:24;;;;;;;3.78;0.63;;;3.90;99.90;;;;;;5052916;28;20034;-71
2022/02/23 05:27:52;;;;;;;2.15;0.70;;;3.90;99.90;;;;;;5055373;28;20090;-71
2022/02/23 05:30:18;;;;;;;4.55;1.13;;;3.90;99.90;;;;;;5056691;28;20068;-71
2022/02/23 05:32:47;;;;;;;5.60;1.77;;;3.90;99.90;;;;;;5051894;28;20523;-71
2022/02/23 05:35:20;;;;;;;;;;;3.90;99.90;;;;;;5052960;28;20541;-71
2022/02/23 05:37:53;;;;;;;5.45;1.13;;;4.00;99.90;;;;;;5053157;28;20003;-71
2022/02/23 05:40:27;;;;;;;4.67;0.80;;;4.00;99.90;;;;;;5037184;28;20136;-71
2022/02/23 05:42:59;;;;;;;8.77;1.23;;;4.00;99.90;;;;;;5053633;28;20279;-71
2022/02/23 05:45:31;;;;;;;7.23;1.00;;;4.00;99.90;;;;;;5053009;28;20132;-72
2022/02/23 05:47:58;;;;;;;4.18;1.10;;;4.00;99.90;;;;;;5053964;28;20044;-71
2022/02/23 05:50:26;;;;;;;3.97;1.05;;;4.00;99.90;;;;;;5051591;28;20463;-71
2022/02/23 05:52:53;;;;;;;3.28;0.90;;;3.90;99.90;;;;;;5032980;28;20098;-71
2022/02/23 05:55:20;;;;;;;5.60;1.08;;;3.90;99.90;;;;;;5066816;28;20511;-71
2022/02/23 05:57:52;;;;;;;2.67;0.90;;;3.80;99.90;;;;;;5052746;28;20094;-71
2022/02/23 06:00:19;;;;;;;1.85;0.57;;;3.80;99.90;;;;;;5052542;28;20045;-71
2022/02/23 06:02:46;;;;;;;3.55;0.80;;;3.70;99.90;;;;;;5059962;28;20495;-71
2022/02/23 06:05:18;;;;;;;6.45;1.02;;;3.70;99.90;;;;;;5038095;28;20051;-71
2022/02/23 06:07:51;;;;;;;3.75;1.10;;;3.60;99.90;;;;;;5055765;28;20032;-71
2022/02/23 06:10:25;;;;;;;6.93;2.65;;;3.60;99.90;;;;;;5050534;28;20147;-71
2022/02/23 06:12:57;;;;;;;2.33;0.60;;;3.70;99.90;;;;;;5049382;28;20033;-71
2022/02/23 06:15:29;;;;;;;4.88;0.70;;;3.60;99.90;;;;;;5060856;28;20455;-71
2022/02/23 06:18:02;;;;;;;2.28;0.80;;;3.60;99.90;;;;;;5058538;28;20077;-71
2022/02/23 06:20:29;;;;;;;2.50;0.98;;;3.60;99.90;;;;;;5058816;28;20041;-71
2022/02/23 06:23:01;;;;;;;3.50;0.95;;;3.50;99.90;;;;;;5049959;28;20128;-71
2022/02/23 06:25:33;;;;;;;5.45;0.98;;;3.40;99.90;;;;;;5074702;28;20467;-71
2022/02/23 06:28:05;;;;;;;3.88;0.90;;;3.40;99.90;;;;;;5051633;28;20068;-71
2022/02/23 06:30:32;;;;;;;1.83;0.88;;;3.30;99.90;;;;;;5082254;28;20065;-70
2022/02/23 06:33:04;;;;;;;6.32;1.00;;;3.20;99.90;;;;;;5039429;28;20713;-71
2022/02/23 06:35:37;;;;;;;3.47;1.20;;;3.10;99.90;;;;;;5060938;28;20075;-70
2022/02/23 06:38:08;;;;;;;5.82;1.10;;;3.10;99.90;;;;;;5065413;28;20116;-71
2022/02/23 06:40:40;;;;;;;5.57;1.13;;;3.10;99.90;;;;;;5055291;28;20137;-71
2022/02/23 06:43:07;;;;;;;9.43;1.48;;;3.10;99.90;;;;;;5072333;28;20549;-71
2022/02/23 06:45:40;;;;;;;8.38;1.33;;;3.00;99.90;;;;;;5066560;28;20713;-71
2022/02/23 06:48:12;;;;;;;2.38;1.00;;;3.00;99.90;;;;;;5052652;28;20123;-71
2022/02/23 06:50:40;;;;;;;4.78;1.30;;;3.10;99.90;;;;;;5051329;28;20037;-71
2022/02/23 06:53:12;;;;;;;5.32;1.73;;;3.10;99.90;;;;;;5051328;28;20055;-71
2022/02/23 06:55:45;;;;;;;3.67;1.00;;;3.10;99.90;;;;;;5035286;28;20045;-72
2022/02/23 06:58:21;;;;;;;7.00;1.27;;;3.10;99.90;;;;;;5046451;28;20068;-72
2022/02/23 07:00:50;;;;;;;3.80;1.08;;;3.20;99.90;;;;;;5046987;28;20568;-71
2022/02/23 07:03:17;;;;;;;4.15;1.13;;;3.20;99.90;;;;;;5040388;28;20099;-72
2022/02/23 07:05:46;;;;;;;3.75;0.90;;;3.20;99.90;;;;;;5045934;28;20053;-71
2022/02/23 07:08:18;;;;;;;3.85;1.30;;;3.30;99.90;;;;;;5046064;28;20099;-71
2022/02/23 07:10:45;;;;;;;8.10;1.42;;;3.20;99.90;;;;;;5049398;28;20759;-71
2022/02/23 07:13:17;;;;;;;8.95;1.38;;;3.30;99.90;;;;;;5050297;28;20043;-71
2022/02/23 07:15:50;;;;;;;4.60;1.08;;;3.40;99.90;;;;;;5049194;28;20090;-71
2022/02/23 07:18:21;;;;;;;5.82;1.52;;;3.40;99.90;;;;;;5051400;28;20070;-71
2022/02/23 07:20:48;;;;;;;6.68;2.13;;;3.50;99.90;;;;;;5069010;28;20481;-71
2022/02/23 07:23:15;;;;;;;5.93;1.20;;;3.50;99.90;;;;;;5051113;28;20493;-70
2022/02/23 07:25:51;;;;;;;5.00;1.38;;;3.60;99.90;;;;;;5057132;28;20106;-71
2022/02/23 07:28:19;;;;;;;3.95;1.20;;;3.60;99.90;;;;;;5070876;28;20047;-72
2022/02/23 07:30:52;;;;;;;7.63;1.48;;;3.60;99.90;;;;;;5064682;28;20093;-71
2022/02/23 07:33:24;;;;;;;3.90;1.27;;;3.70;99.90;;;;;;5049661;28;20115;-71
2022/02/23 07:35:55;;;;;;;5.45;1.15;;;3.80;99.90;;;;;;5062404;28;20127;-71
2022/02/23 07:38:22;;;;;;;6.30;1.95;;;3.80;99.90;;;;;;5056272;28;20111;-71
2022/02/23 07:40:49;;;;;;;5.13;1.20;;;3.90;99.90;;;;;;5051957;28;20115;-72
2022/02/23 07:43:21;;;;;;;4.28;1.00;;;4.00;99.90;;;;;;5052281;28;20041;-71
2022/02/23 07:45:58;;;;;;;4.05;1.48;;;4.00;99.90;;;;;;5051445;28;20127;-71
2022/02/23 07:48:29;;;;;;;2.30;1.02;;;4.10;99.90;;;;;;5049357;28;20147;-71
2022/02/23 07:50:58;;;;;;;5.53;0.95;;;4.10;99.90;;;;;;5048645;28;20127;-70
2022/02/23 07:53:25;;;;;;;5.28;1.15;;;4.20;99.90;;;;;;5052284;28;20078;-74
2022/02/23 07:55:52;;;;;;;7.30;1.50;;;4.30;99.90;;;;;;5066377;28;20045;-71
2022/02/23 07:58:24;;;;;;;5.13;1.42;;;4.30;99.90;;;;;;5057999;28;20392;-71
2022/02/23 08:00:57;;;;;;;3.45;1.20;;;4.40;99.90;;;;;;5051919;28;20124;-71
2022/02/23 08:03:28;;;;;;;7.97;1.60;;;4.40;99.90;;;;;;5066275;28;20067;-71
2022/02/23 08:05:55;;;;;;;3.65;1.25;;;4.40;99.90;;;;;;5052533;28;20056;-71
2022/02/23 08:08:27;;;;;;;2.95;1.10;;;4.50;99.90;;;;;;5044907;28;20044;-72
2022/02/23 08:10:59;;;;;;;6.50;1.35;;;4.60;99.90;;;;;;5053498;28;20500;-71
2022/02/23 08:13:30;;;;;;;3.47;1.30;;;4.70;99.90;;;;;;5048994;28;20123;-71
2022/02/23 08:21:39;;;;;;;8.15;1.95;;;4.80;99.90;;;;;;5049341;28;20048;-71
2022/02/23 08:24:10;;;;;;;5.90;1.83;;;4.90;99.90;;;;;;5049563;28;20512;-72
2022/02/23 08:26:43;;;;;;;7.00;1.67;;;5.00;99.90;;;;;;5043333;28;20045;-71
2022/02/23 08:29:15;;;;;;;8.65;2.83;;;5.10;99.90;;;;;;5031954;28;20067;-71
2022/02/23 08:31:47;;;;;;;6.97;2.05;;;5.20;99.90;;;;;;5051389;28;20606;-71
2022/02/23 08:34:20;;;;;;;9.20;2.05;;;5.20;99.90;;;;;;5054755;28;20143;-72
2022/02/23 08:36:47;;;;;;;3.30;1.98;;;5.30;99.90;;;;;;5058630;28;20064;-71
2022/02/23 08:39:16;;;;;;;7.32;1.80;;;5.30;99.90;;;;;;5058081;28;20076;-72
2022/02/23 08:41:48;;;;;;;8.20;1.88;;;5.40;99.90;;;;;;5044527;28;20855;-72
2022/02/23 08:44:21;;;;;;;7.90;1.90;;;5.50;99.90;;;;;;5062098;28;20044;-71
2022/02/23 08:46:52;;;;;;;3.97;1.67;;;5.50;99.90;;;;;;5064817;28;20124;-71
2022/02/23 08:49:19;;;;;;;8.63;2.03;;;5.60;99.90;;;;;;5048693;28;20115;-72
2022/02/23 08:51:51;;;;;;;7.57;2.00;;;5.70;99.90;;;;;;5055305;28;20045;-71
2022/02/23 08:54:24;;;;;;;12.02;2.00;;;5.80;99.90;;;;;;5048762;28;20451;-72
2022/02/23 08:56:51;;;;;;;5.20;1.67;;;5.70;99.90;;;;;;5049420;28;20045;-71
2022/02/23 08:59:23;;;;;;;7.72;2.17;;;5.80;99.90;;;;;;5051173;28;20140;-71
2022/02/23 09:01:50;;;;;;;6.63;2.08;;;5.90;99.90;;;;;;5050852;28;20065;-72
2022/02/23 09:04:16;;;;;;;5.18;2.00;;;6.00;99.90;;;;;;5062659;28;20068;-71
2022/02/23 09:06:48;;;;;;;6.68;2.35;;;6.00;99.90;;;;;;5048361;28;20077;-71
2022/02/23 09:09:21;;;;;;;9.73;2.50;;;6.10;99.90;;;;;;5045570;28;20123;-71
2022/02/23 09:11:53;;;;;;;10.82;2.33;;;6.10;99.90;;;;;;5056076;28;20531;-70
2022/02/23 09:14:20;;;;;;;6.35;2.53;;;6.10;99.90;;;;;;5038367;28;20462;-72
2022/02/23 09:16:52;;;;;;;8.25;2.20;;;6.20;99.90;;;;;;5042711;28;20108;-72
2022/02/23 09:19:19;;;;;;;7.32;2.47;;;6.20;99.90;;;;;;5041991;28;20045;-71
2022/02/23 09:21:51;;;;;;;6.97;2.30;;;6.30;99.90;;;;;;5050565;28;20065;-72
2022/02/23 09:24:23;;;;;;;6.03;2.20;;;6.40;99.90;;;;;;5050172;28;20131;-72
2022/02/23 09:27:02;;;;;;;8.90;2.08;;;6.40;99.90;;;;;;5049076;28;20041;-70
2022/02/23 09:29:36;;;;;;;9.27;2.45;;;6.50;99.90;;;;;;5043480;28;20124;-70
2022/02/23 09:32:08;;;;;;;6.80;1.90;;;6.70;99.90;;;;;;5061387;28;20091;-71
2022/02/23 09:34:40;;;;;;;8.93;2.05;;;6.70;99.90;;;;;;5050659;28;20124;-71
2022/02/23 09:37:11;;;;;;;10.55;2.80;;;6.60;99.90;;;;;;5065539;28;20075;-70
2022/02/23 09:39:44;;;;;;;6.50;2.10;;;6.70;99.90;;;;;;5049528;28;20179;-71
2022/02/23 09:42:17;;;;;;;12.30;2.92;;;6.60;99.90;;;;;;5062609;28;20047;-71
2022/02/23 09:44:43;;;;;;;6.85;1.73;;;6.60;99.90;;;;;;5069558;28;20131;-70
2022/02/23 09:47:14;;;;;;;6.05;1.85;;;6.60;99.90;;;;;;5070611;28;20059;-71
2022/02/23 09:49:43;;;;;;;8.63;2.47;;;6.60;99.90;;;;;;5055638;28;20041;-72
2022/02/23 09:52:15;;;;;;;;;;;6.60;99.90;;;;;;5055674;28;20041;-72
2022/02/23 09:54:50;;;;;;;6.75;2.13;;;6.60;99.90;;;;;;5032562;28;20004;-72
2022/02/23 09:57:23;;;;;;;13.05;2.42;;;6.80;99.90;;;;;;5054098;28;20496;-71
2022/02/23 09:59:58;;;;;;;8.40;1.92;;;7.10;99.90;;;;;;5037163;28;20518;-71
2022/02/23 10:02:25;;;;;;;10.85;2.40;;;7.20;99.90;;;;;;5053752;28;20068;-71
2022/02/23 10:05:00;;;;;;;7.80;1.95;;;7.40;99.90;;;;;;5053076;28;20045;-71
2022/02/23 10:07:31;;;;;;;6.65;1.60;;;7.40;99.90;;;;;;5055153;28;20036;-71
2022/02/23 10:10:07;;;;;;;5.00;1.80;;;7.50;99.90;;;;;;5065643;28;20511;-72
2022/02/23 10:12:37;;;;;;;12.60;4.50;;;7.60;99.90;;;;;;5054613;28;20045;-72
2022/02/23 10:15:19;;;;;;;7.03;2.03;;;7.50;99.90;;;;;;5052078;28;20048;-71
2022/02/23 10:17:52;;;;;;;10.18;2.47;;;7.40;99.90;;;;;;5052117;28;20067;-72
2022/02/23 10:20:37;;;;;;;7.38;2.30;;;7.40;99.90;;;;;;5053615;28;20041;-71
2022/02/23 10:23:18;;;;;;;12.05;2.50;;;7.30;99.90;;;;;;5051720;28;20564;-71
2022/02/23 10:26:12;;;;;;;12.10;2.35;;;7.30;99.90;;;;;;5054079;28;20068;-71
2022/02/23 10:28:44;;;;;;;6.57;1.70;;;7.20;99.90;;;;;;5066598;28;20069;-72
2022/02/23 10:31:19;;;;;;;7.78;2.15;;;7.10;99.90;;;;;;5052238;28;20071;-71
2022/02/23 10:33:50;;;;;;;8.98;2.17;;;7.10;99.90;;;;;;5056521;28;20068;-72
2022/02/23 10:36:22;;;;;;;10.07;2.30;;;7.10;99.90;;;;;;5071823;28;20510;-72
2022/02/23 10:39:00;;;;;;;8.88;2.30;;;7.00;99.90;;;;;;5055499;28;20044;-72
2022/02/23 10:41:36;;;;;;;8.15;2.17;;;7.00;99.90;;;;;;5055126;28;20064;-72
2022/02/23 10:44:09;;;;;;;8.20;1.70;;;7.00;99.90;;;;;;5055837;28;20090;-71
2022/02/23 10:46:41;;;;;;;8.98;1.85;;;7.10;99.90;;;;;;5066731;28;20044;-72
2022/02/23 10:49:09;;;;;;;7.80;1.85;;;7.20;99.90;;;;;;5068290;28;20087;-71
2022/02/23 10:51:45;;;;;;;10.30;3.20;;;7.20;99.90;;;;;;5052676;28;20037;-72
2022/02/23 10:54:13;;;;;;;11.35;2.65;;;7.20;99.90;;;;;;5049034;28;20493;-71
2022/02/23 10:56:42;;;;;;;6.32;2.25;;;7.20;99.90;;;;;;5058125;28;20119;-72
2022/02/23 10:59:09;;;;;;;6.32;1.77;;;7.30;99.90;;;;;;5054000;28;20452;-71
2022/02/23 11:01:47;;;;;;;10.48;2.25;;;7.40;99.90;;;;;;5048663;28;20037;-72
2022/02/23 11:04:21;;;;;;;9.98;2.25;;;7.60;99.90;;;;;;5053598;28;20044;-72
2022/02/23 11:06:54;;;;;;;6.18;2.22;;;7.80;99.90;;;;;;5062275;28;20044;-71
2022/02/23 11:09:25;;;;;;;5.25;1.73;;;7.90;99.90;;;;;;5039177;28;20052;-72
2022/02/23 11:11:52;;;;;;;11.50;3.08;;;7.90;99.90;;;;;;5059973;28;20048;-72
2022/02/23 11:14:25;;;;;;;6.82;2.03;;;8.00;99.90;;;;;;5059549;28;20046;-72
2022/02/23 11:17:00;;;;;;;8.30;2.33;;;8.00;99.90;;;;;;5067152;28;20559;-72
2022/02/23 11:19:35;;;;;;;8.65;2.60;;;8.10;99.90;;;;;;5062579;28;20040;-71
2022/02/23 11:22:07;;;;;;;4.43;1.50;;;8.10;99.90;;;;;;5074856;28;20578;-72
2022/02/23 11:24:40;;;;;;;8.80;2.00;;;8.10;99.90;;;;;;5060661;28;20098;-71
2022/02/23 11:27:20;;;;;;;10.95;2.15;;;8.00;99.90;;;;;;5051893;28;20311;-72
2022/02/23 11:30:04;;;;;;;6.47;1.90;;;7.90;99.90;;;;;;5056645;28;20051;-71
2022/02/23 11:32:41;;;;;;;5.15;1.60;;;8.00;99.90;;;;;;5052382;28;20128;-72
2022/02/23 11:35:37;;;;;;;4.43;1.55;;;8.10;99.90;;;;;;5061642;28;20087;-72
2022/02/23 11:38:06;;;;;;;5.97;1.55;;;8.20;99.90;;;;;;5055083;28;20127;-71
2022/02/23 11:40:56;;;;;;;6.63;2.08;;;8.30;99.90;;;;;;5063237;28;20495;-72
2022/02/23 11:43:32;;;;;;;8.50;2.17;;;8.40;99.90;;;;;;5061452;28;20048;-72
2022/02/23 11:46:08;;;;;;;6.70;1.55;;;8.50;99.90;;;;;;5042527;28;20127;-71
2022/02/23 11:48:49;;;;;;;5.70;1.60;;;8.60;99.90;;;;;;5055870;28;20067;-72
2022/02/23 11:51:38;;;;;;;6.80;1.25;;;8.70;99.90;;;;;;5050915;28;20072;-71
2022/02/23 11:54:10;;;;;;;6.20;1.10;;;8.80;99.90;;;;;;5051460;28;20120;-72
2022/02/23 11:56:48;;;;;;;6.38;1.25;;;8.80;99.90;;;;;;5051743;28;20523;-72
2022/02/23 11:59:48;;;;;;;6.05;1.30;;;8.80;99.90;;;;;;5047987;28;20076;-72
2022/02/23 12:02:30;;;;;;;7.03;2.03;;;8.80;99.90;;;;;;5070165;28;20041;-72
2022/02/23 12:05:03;;;;;;;2.85;1.15;;;9.00;99.90;;;;;;5041127;28;20064;-71
2022/02/23 12:07:46;;;;;;;6.53;1.42;;;9.10;99.90;;;;;;5050398;28;20041;-72
2022/02/23 12:10:29;;;;;;;5.80;1.38;;;9.20;99.90;;;;;;5051121;28;20037;-71
2022/02/23 12:13:01;;;;;;;3.97;1.20;;;9.30;99.90;;;;;;5064720;28;20122;-72
2022/02/23 12:15:39;;;;;;;5.57;1.38;;;9.30;99.90;;;;;;5063786;28;20538;-72
2022/02/23 12:18:19;;;;;;;5.38;1.02;;;9.40;99.90;;;;;;5038342;28;20033;-72
2022/02/23 12:20:54;;;;;;;4.75;1.60;;;9.30;99.90;;;;;;5039762;28;20163;-72
2022/02/23 12:23:25;;;;;;;5.72;1.55;;;9.30;99.90;;;;;;5043289;28;20064;-71
2022/02/23 12:26:20;;;;;;;6.15;1.33;;;9.30;99.90;;;;;;5041434;28;20056;-72
2022/02/23 12:28:50;;;;;;;4.45;1.70;;;9.30;99.90;;;;;;5043315;28;20117;-71
2022/02/23 12:31:30;;;;;;;6.63;2.00;;;9.30;99.90;;;;;;5049914;28;20120;-71
2022/02/23 12:34:08;;;;;;;7.57;1.27;;;9.30;99.90;;;;;;5050707;28;20479;-72
2022/02/23 12:36:49;;;;;;;5.57;1.42;;;9.30;99.90;;;;;;5046224;28;20927;-72
2022/02/23 12:39:26;;;;;;;5.75;1.38;;;9.40;99.90;;;;;;5048593;28;20112;-72
2022/02/23 12:42:02;;;;;;;4.07;1.23;;;9.50;99.90;;;;;;5057019;28;20053;-72
2022/02/23 12:44:37;;;;;;;3.40;1.00;;;9.60;99.90;;;;;;5043823;28;20108;-72
2022/02/23 12:47:17;;;;;;;4.32;1.30;;;9.60;99.90;;;;;;5047357;28;20403;-72
2022/02/23 12:49:59;;;;;;;7.05;2.15;;;9.50;99.90;;;;;;5055820;28;20037;-72
2022/02/23 12:52:35;;;;;;;3.20;1.17;;;9.40;99.90;;;;;;5062650;28;20037;-71
2022/02/23 12:55:08;;;;;;;5.20;1.02;;;9.30;99.90;;;;;;5051085;28;20043;-72
2022/02/23 12:57:44;;;;;;;5.35;1.13;;;9.30;99.90;;;;;;5046454;28;20102;-72
2022/02/23 13:00:22;;;;;;;5.13;1.00;;;9.30;99.90;;;;;;5056331;28;20137;-72
2022/02/23 13:02:55;;;;;;;5.03;1.75;;;9.20;99.90;;;;;;5044916;28;20052;-71
2022/02/23 13:05:27;;;;;;;7.90;1.67;;;9.10;99.90;;;;;;5041525;28;20095;-71
2022/02/23 13:07:55;;;;;;;4.80;1.38;;;9.00;99.90;;;;;;5064936;28;20093;-72
2022/02/23 13:10:28;;;;;;;;;;;8.90;99.90;;;;;;5046880;28;20029;-72
2022/02/23 13:13:04;;;;;;;5.47;2.28;;;8.90;99.90;;;;;;5042211;28;20383;-71
2022/02/23 13:15:35;;;;;;;5.65;1.60;;;8.90;99.90;;;;;;5043551;28;20048;-72
2022/02/23 13:18:08;;;;;;;5.85;1.58;;;9.00;99.90;;;;;;5031251;28;20403;-72
2022/02/23 13:20:41;;;;;;;4.70;1.75;;;9.10;99.90;;;;;;5023343;28;20040;-71
2022/02/23 13:23:19;;;;;;;5.15;1.27;;;9.20;99.90;;;;;;5047276;28;20168;-71
2022/02/23 13:26:09;;;;;;;5.88;1.27;;;9.30;99.90;;;;;;5060753;28;20037;-71
2022/02/23 13:28:36;;;;;;;5.18;1.70;;;9.30;99.90;;;;;;5047099;28;20127;-71